Terminal Aerodrome Forecast
Issued by NWS

Home | Current Version | Previous Version | Text Only | Print | Product List | Glossary On
Versions: 1 2 3 4 5 6 7 8 9 10 11 12
678
FTUS46 KPDT 311121
TAFBDN
TAF
KBDN 311121Z 3112/0112 VRB05KT P6SM SCT250
     FM311900 36008KT P6SM SCT250
     FM010800 VRB04KT P6SM SCT250=

USA.gov is the U.S. government's official web portal to all federal, state and local government web resources and services.